Portada
METAR-TAF:

METAR-TAF

Aeroports :

Chibougamau, Quebec, Canadà

latitud: 49-46N, longitud: 074-32W, altitud: 388 m

Observació

L'informe es va fer fa 17 minuts, a les 17:01 UTC
Vent 17 kt del Est amb ràfegues de 30 kt
Temperatura -7°C
Humitat 79%
Pressió 998 hPa
Visibilitat: 4.8 km
Cel ennuvolat a una alçada de 2100 ft
Cel cobert a una alçada de 6500 ft
neu

METAR: CYMT 271701Z AUTO 08017G30KT 3SM -SN BKN021 OVC065 M07/M10 A2946 RMK PRESFR SLP004

Hora: 12:18 (17:18 UTC)

Pronòstic

L'informe es va fer fa 2 hores i 10 minuts, a les 15:08 UTC
Pronòstic vàlid del 27 a les 15 UTC al 28 a les 01 UTC
Vent 15 kt del Est amb ràfegues de 25 kt
Visibilitat: 4.8 km
Cel cobert a una alçada de 2500 ft
neu
Temporalment
l' 27 a les 15 UTC al 28 a les 01 UTC
Visibilitat: 1.2 km
a una alçada de 800 ft
neu

TAF: CYMT 271508Z 2715/2801 09015G25KT 3SM -SN OVC025 TEMPO 2715/2801 3/4SM -SN VV008 RMK FCST BASED ON AUTO OBS. NXT FCST BY 271800Z

Observacions i pronòstics meteorològics de més de 4000 aeroports (METAR i TAF).

Les estacions disponibles són els punts grocs i vermells al mapa.

Posi el ratolí al punt desitjat per veure el nom de l'estació.

Feu clic per veure les observacions i els pronòstics meteorològics.

Per canviar el mapa: feu clic els botons verds amb una creu de color negre per apropar; al botó verd amb un guió per allunyar la imatge; o en les fletxes verdes per a mapes adjacents.


METAR-TAF: